Time;durP1;ratioP1;P1;durP2;ratioP2;P2;SDS_P1;SDS_P2;PMS_P1;PMS_P2;Temp;Humidity;BMP_temperature;BMP_pressure;BME280_temperature;BME280_humidity;BME280_pressure;Samples;Min_cycle;Max_cycle;Signal;HPM_P1;HPM_P2
2021/03/21 00:03:24;;;;;;;0.90;0.30;;;6.40;99.90;;;;;;10362153;28;20045;-51
2021/03/21 00:08:45;;;;;;;0.93;0.35;;;6.40;99.90;;;;;;10352992;28;20037;-51
2021/03/21 00:14:06;;;;;;;0.60;0.30;;;6.40;99.90;;;;;;10369229;28;20061;-51
2021/03/21 00:19:27;;;;;;;1.60;0.68;;;6.40;99.90;;;;;;10346132;28;20045;-51
2021/03/21 00:24:48;;;;;;;1.10;0.32;;;6.50;99.90;;;;;;10372436;28;20478;-51
2021/03/21 00:30:14;;;;;;;1.33;0.40;;;6.40;99.90;;;;;;10342724;28;20856;-51
2021/03/21 00:35:35;;;;;;;0.82;0.30;;;6.50;99.90;;;;;;10367322;28;20052;-51
2021/03/21 00:40:57;;;;;;;0.68;0.20;;;6.60;99.90;;;;;;10367926;28;20049;-51
2021/03/21 00:46:18;;;;;;;1.05;0.40;;;6.60;99.90;;;;;;10357355;28;20037;-51
2021/03/21 00:51:39;;;;;;;1.63;0.82;;;6.50;99.90;;;;;;10374466;28;20034;-51
2021/03/21 00:57:00;;;;;;;1.30;0.40;;;6.50;99.90;;;;;;10373757;28;20041;-51
2021/03/21 01:02:21;;;;;;;1.05;0.40;;;6.50;99.90;;;;;;10367582;28;20052;-51
2021/03/21 01:07:42;;;;;;;1.77;0.30;;;6.50;99.90;;;;;;10361578;28;20045;-51
2021/03/21 01:13:03;;;;;;;0.43;0.20;;;6.40;99.90;;;;;;10373904;28;20072;-51
2021/03/21 01:18:27;;;;;;;0.93;0.38;;;6.40;99.90;;;;;;10350540;28;20037;-52
2021/03/21 01:23:48;;;;;;;1.38;0.50;;;6.40;99.90;;;;;;10372759;28;20080;-51
2021/03/21 01:29:09;;;;;;;2.25;0.60;;;6.40;99.90;;;;;;10351002;28;20475;-51
2021/03/21 01:34:30;;;;;;;1.50;0.57;;;6.40;99.90;;;;;;10367567;28;20048;-51
2021/03/21 01:39:51;;;;;;;3.00;0.75;;;6.40;99.90;;;;;;10370773;28;20423;-51
2021/03/21 01:45:33;;;;;;;2.58;0.85;;;6.50;99.90;;;;;;10371872;28;20060;-51
2021/03/21 01:50:58;;;;;;;0.75;0.20;;;6.60;99.90;;;;;;10367633;28;20042;-51
2021/03/21 01:56:20;;;;;;;0.88;0.35;;;6.60;99.90;;;;;;10364844;28;20033;-52
2021/03/21 02:01:42;;;;;;;1.25;0.40;;;6.50;99.90;;;;;;10361208;28;20053;-52
2021/03/21 02:07:06;;;;;;;1.67;0.60;;;6.50;99.90;;;;;;10352433;28;20125;-51
2021/03/21 02:12:59;;;;;;;2.70;0.80;;;6.40;99.90;;;;;;10356020;28;20042;-51
2021/03/21 02:18:24;;;;;;;2.50;1.35;;;6.40;99.90;;;;;;10364168;28;20033;-51
2021/03/21 02:24:10;;;;;;;2.05;1.40;;;6.40;99.90;;;;;;10373576;28;20072;-51
2021/03/21 02:29:31;;;;;;;2.22;0.75;;;6.40;99.90;;;;;;10374573;28;20041;-51
2021/03/21 02:35:02;;;;;;;4.13;0.88;;;6.40;99.90;;;;;;10376971;28;20040;-52
2021/03/21 02:40:50;;;;;;;3.10;1.25;;;6.50;99.90;;;;;;10369511;28;20232;-52
2021/03/21 02:46:19;;;;;;;2.22;0.70;;;6.40;99.90;;;;;;10354813;28;20128;-51
2021/03/21 02:51:47;;;;;;;4.78;1.15;;;6.40;99.90;;;;;;10378685;28;20113;-52
2021/03/21 02:57:12;;;;;;;3.33;1.48;;;6.40;99.90;;;;;;10362130;28;20044;-51
2021/03/21 03:02:44;;;;;;;4.82;1.75;;;6.40;99.90;;;;;;10360624;28;20072;-51
2021/03/21 03:08:25;;;;;;;5.78;1.67;;;6.50;99.90;;;;;;10373012;28;20045;-51
2021/03/21 03:14:00;;;;;;;3.53;1.13;;;6.50;99.90;;;;;;10373349;28;20068;-52
2021/03/21 03:19:41;;;;;;;7.60;1.67;;;6.50;99.90;;;;;;10366391;28;20068;-52
2021/03/21 03:25:27;;;;;;;5.60;2.22;;;6.60;99.90;;;;;;10368131;28;20041;-52
2021/03/21 03:31:11;;;;;;;10.85;1.95;;;6.50;99.90;;;;;;10361429;28;20056;-52
2021/03/21 03:36:34;;;;;;;8.73;1.75;;;6.50;99.90;;;;;;10348069;28;20065;-52
2021/03/21 03:42:06;;;;;;;9.10;3.00;;;6.50;99.90;;;;;;10360434;28;20750;-52
2021/03/21 03:48:05;;;;;;;4.72;2.75;;;6.60;99.90;;;;;;10366627;28;20064;-52
2021/03/21 03:53:47;;;;;;;12.52;3.08;;;6.60;99.90;;;;;;10367184;28;20041;-52
2021/03/21 03:59:45;;;;;;;9.02;2.63;;;6.70;99.90;;;;;;10332958;28;20417;-52
2021/03/21 04:05:17;;;;;;;6.45;1.48;;;6.70;99.90;;;;;;10327187;28;20173;-52
2021/03/21 04:10:49;;;;;;;2.80;0.93;;;6.80;99.90;;;;;;10327378;28;20041;-52
2021/03/21 04:16:16;;;;;;;3.60;1.42;;;6.80;99.90;;;;;;10365828;28;20511;-52
2021/03/21 04:21:48;;;;;;;2.47;1.10;;;6.90;99.90;;;;;;10367240;28;20049;-52
2021/03/21 04:27:17;;;;;;;1.95;0.88;;;6.90;99.90;;;;;;10348428;28;20583;-52
2021/03/21 04:32:47;;;;;;;1.53;0.50;;;6.90;99.90;;;;;;10355320;28;20639;-52
2021/03/21 04:38:15;;;;;;;1.77;0.77;;;6.90;99.90;;;;;;10366272;28;20574;-52
2021/03/21 04:43:44;;;;;;;4.95;1.35;;;6.90;99.90;;;;;;10367428;28;20037;-52
2021/03/21 04:49:05;;;;;;;1.20;0.52;;;6.90;99.90;;;;;;10360568;28;20046;-51
2021/03/21 04:54:31;;;;;;;1.33;0.32;;;6.90;99.90;;;;;;10355145;28;20038;-52
2021/03/21 04:59:52;;;;;;;1.17;0.20;;;6.90;99.90;;;;;;10366958;28;20034;-51
2021/03/21 05:05:19;;;;;;;1.75;0.65;;;6.90;99.90;;;;;;10321948;28;20042;-51
2021/03/21 05:10:45;;;;;;;2.08;0.65;;;6.80;99.90;;;;;;10367001;28;20034;-51
2021/03/21 05:16:10;;;;;;;2.83;0.30;;;6.80;99.90;;;;;;10366565;28;20449;-51
2021/03/21 05:21:42;;;;;;;1.30;0.30;;;6.80;99.90;;;;;;10370304;28;20428;-51
2021/03/21 05:27:16;;;;;;;8.15;0.60;;;6.80;99.90;;;;;;10360975;28;20120;-51
2021/03/21 05:32:37;;;;;;;4.55;0.30;;;6.80;99.90;;;;;;10366099;28;20041;-52
2021/03/21 05:38:14;;;;;;;2.55;0.35;;;6.70;99.90;;;;;;10357597;28;20488;-51
2021/03/21 05:44:00;;;;;;;0.90;0.30;;;6.90;99.90;;;;;;10367752;28;20046;-51
2021/03/21 05:50:02;;;;;;;3.22;1.40;;;6.90;99.90;;;;;;10349282;28;20092;-51
2021/03/21 05:55:32;;;;;;;1.42;0.28;;;6.80;99.90;;;;;;10359684;28;20421;-51
2021/03/21 06:01:07;;;;;;;3.60;0.30;;;6.80;99.90;;;;;;10379502;28;20045;-51
2021/03/21 06:06:40;;;;;;;1.90;0.38;;;6.80;99.90;;;;;;10362235;28;20180;-51
2021/03/21 06:12:38;;;;;;;1.13;0.47;;;6.80;99.90;;;;;;10355620;28;20041;-51
2021/03/21 06:18:10;;;;;;;0.68;0.30;;;6.90;99.90;;;;;;10375808;28;20038;-51
2021/03/21 06:23:50;;;;;;;1.35;0.38;;;6.90;99.90;;;;;;10357998;28;20042;-51
2021/03/21 06:29:37;;;;;;;3.05;1.20;;;7.00;99.90;;;;;;10364008;28;20515;-51
2021/03/21 06:35:16;;;;;;;0.32;0.15;;;7.10;99.90;;;;;;10373820;28;20045;-51
2021/03/21 06:40:55;;;;;;;3.15;0.30;;;7.10;99.90;;;;;;10369405;28;20069;-51
2021/03/21 06:46:38;;;;;;;2.55;0.32;;;7.10;99.90;;;;;;10372490;28;20044;-51
2021/03/21 06:52:43;;;;;;;5.15;0.40;;;7.10;99.90;;;;;;10370373;28;20072;-51
2021/03/21 06:58:41;;;;;;;5.47;0.77;;;7.10;99.90;;;;;;10350103;28;20041;-51
2021/03/21 07:04:05;;;;;;;1.80;0.45;;;7.10;99.90;;;;;;10372063;28;20080;-51
2021/03/21 07:09:38;;;;;;;4.68;0.28;;;7.10;99.90;;;;;;10356978;28;21640;-51
2021/03/21 07:15:14;;;;;;;4.93;0.50;;;7.30;99.90;;;;;;10368657;28;20401;-51
2021/03/21 07:20:47;;;;;;;6.63;0.22;;;7.30;99.90;;;;;;10359127;28;20057;-51
2021/03/21 07:26:21;;;;;;;4.40;0.43;;;7.30;99.90;;;;;;10358800;28;20456;-51
2021/03/21 07:32:01;;;;;;;1.90;0.13;;;7.40;99.90;;;;;;10365610;28;20114;-51
2021/03/21 07:37:33;;;;;;;;;;;7.40;99.90;;;;;;10370956;28;20069;-51
2021/03/21 07:43:30;;;;;;;0.20;0.10;;;7.40;99.90;;;;;;10369928;28;19952;-51
2021/03/21 07:48:51;;;;;;;0.52;0.13;;;7.50;99.90;;;;;;10365687;28;20045;-51
2021/03/21 07:54:36;;;;;;;1.15;0.50;;;7.50;99.90;;;;;;10368638;28;20543;-51
2021/03/21 08:00:00;;;;;;;3.42;0.80;;;7.60;99.90;;;;;;10365922;28;20044;-51
2021/03/21 08:05:25;;;;;;;2.67;0.40;;;7.60;99.90;;;;;;10370837;28;20136;-51
2021/03/21 08:10:52;;;;;;;0.40;0.10;;;7.60;99.90;;;;;;10373741;28;20034;-51
2021/03/21 08:16:25;;;;;;;1.27;0.38;;;7.60;99.90;;;;;;10359255;28;20204;-51
2021/03/21 08:21:47;;;;;;;2.67;0.38;;;7.50;99.90;;;;;;10357262;28;20048;-51
2021/03/21 08:27:24;;;;;;;1.35;0.57;;;7.60;99.90;;;;;;10336274;28;20034;-52
2021/03/21 08:32:58;;;;;;;1.05;0.30;;;7.50;99.90;;;;;;10336567;28;20065;-51
2021/03/21 08:38:21;;;;;;;2.00;0.38;;;7.60;99.90;;;;;;10339914;28;20042;-51
2021/03/21 08:43:42;;;;;;;4.53;0.95;;;7.60;99.90;;;;;;10334005;28;20133;-51
2021/03/21 08:49:21;;;;;;;1.30;0.73;;;7.70;99.90;;;;;;10329711;28;20108;-51
2021/03/21 08:54:50;;;;;;;4.57;1.05;;;7.70;99.90;;;;;;10332942;28;20569;-51
2021/03/21 09:00:21;;;;;;;1.95;0.95;;;7.60;99.90;;;;;;10370315;28;20488;-51
2021/03/21 09:05:52;;;;;;;6.90;0.60;;;7.70;99.90;;;;;;10369792;28;20073;-51
2021/03/21 09:11:13;;;;;;;4.68;0.68;;;7.80;99.90;;;;;;10376182;28;20034;-51
2021/03/21 09:16:52;;;;;;;9.73;0.70;;;7.90;99.90;;;;;;10379191;28;20030;-51
2021/03/21 09:22:35;;;;;;;2.20;0.77;;;8.00;99.90;;;;;;10382521;28;20080;-51
2021/03/21 09:27:57;;;;;;;0.93;0.50;;;7.70;99.90;;;;;;10377988;28;20045;-51
2021/03/21 09:33:24;;;;;;;3.13;0.88;;;7.70;99.90;;;;;;10385003;28;20034;-51
2021/03/21 09:38:51;;;;;;;12.13;2.30;;;7.80;99.90;;;;;;10383682;28;20034;-51
2021/03/21 09:44:33;;;;;;;2.65;1.08;;;8.00;99.90;;;;;;10371628;28;20076;-51
2021/03/21 09:50:16;;;;;;;2.33;1.00;;;8.00;99.90;;;;;;10376982;28;20045;-51
2021/03/21 09:55:52;;;;;;;5.40;1.20;;;7.90;99.90;;;;;;10375121;28;20038;-51
2021/03/21 10:01:37;;;;;;;8.60;1.63;;;8.20;99.90;;;;;;10379033;28;20045;-51
2021/03/21 10:07:09;;;;;;;1.63;0.45;;;8.30;99.90;;;;;;10374847;28;20054;-51
2021/03/21 10:12:31;;;;;;;3.30;1.30;;;8.20;99.90;;;;;;10358241;28;20496;-51
2021/03/21 10:18:00;;;;;;;5.47;1.13;;;8.40;99.90;;;;;;10335489;28;20034;-51
2021/03/21 10:23:21;;;;;;;4.85;1.50;;;8.30;99.90;;;;;;10335951;28;20053;-51
2021/03/21 10:28:47;;;;;;;5.05;0.40;;;8.50;99.90;;;;;;10335763;28;20045;-51
2021/03/21 10:34:08;;;;;;;4.57;0.60;;;8.80;99.90;;;;;;10333370;28;20632;-51
2021/03/21 10:39:29;;;;;;;9.38;1.27;;;8.90;99.90;;;;;;10335018;28;20104;-51
2021/03/21 10:44:50;;;;;;;7.47;1.73;;;8.70;99.90;;;;;;10336104;28;20045;-51
2021/03/21 10:50:51;;;;;;;5.35;2.17;;;8.40;99.90;;;;;;10373290;28;20038;-51
2021/03/21 10:56:20;;;;;;;11.93;1.23;;;8.20;99.90;;;;;;10358720;28;20561;-51
2021/03/21 11:01:42;;;;;;;;;;;8.30;99.90;;;;;;10376128;28;20041;-51
2021/03/21 11:07:12;;;;;;;1.85;0.80;;;8.60;99.90;;;;;;10365354;28;19924;-51
2021/03/21 11:12:36;;;;;;;6.32;0.82;;;8.60;99.90;;;;;;10370246;28;20030;-51
2021/03/21 11:18:04;;;;;;;6.05;1.30;;;8.60;99.90;;;;;;10380950;28;20046;-51
2021/03/21 11:23:25;;;;;;;5.65;1.55;;;8.50;99.90;;;;;;10377267;28;20440;-51
2021/03/21 11:28:46;;;;;;;4.47;0.75;;;8.40;99.90;;;;;;10374264;28;20050;-50
2021/03/21 11:34:27;;;;;;;4.53;0.60;;;8.40;99.90;;;;;;10372740;28;20021;-51
2021/03/21 11:39:56;;;;;;;5.20;0.82;;;8.40;99.90;;;;;;10359715;28;20040;-51
2021/03/21 11:45:27;;;;;;;3.17;1.42;;;8.30;99.90;;;;;;10372537;28;20036;-51
2021/03/21 11:50:54;;;;;;;6.30;1.65;;;8.40;99.90;;;;;;10365286;28;20038;-51
2021/03/21 11:56:22;;;;;;;3.33;1.08;;;8.40;99.90;;;;;;10368103;28;20037;-51
2021/03/21 12:01:48;;;;;;;2.17;0.88;;;8.30;99.90;;;;;;10368134;28;20046;-51
2021/03/21 12:07:22;;;;;;;12.30;1.27;;;8.30;99.90;;;;;;10350494;28;20054;-51
2021/03/21 12:12:44;;;;;;;2.47;0.47;;;8.30;99.90;;;;;;10355726;28;20045;-50
2021/03/21 12:18:16;;;;;;;2.35;0.95;;;8.60;99.90;;;;;;10372654;28;20045;-51
2021/03/21 12:23:42;;;;;;;7.53;0.73;;;8.80;99.90;;;;;;10364428;28;20377;-51
2021/03/21 12:29:25;;;;;;;3.88;1.05;;;8.80;99.90;;;;;;10363434;28;20049;-51
2021/03/21 12:34:49;;;;;;;5.95;0.60;;;9.10;99.90;;;;;;10359721;28;20041;-50
2021/03/21 12:40:14;;;;;;;3.88;0.90;;;9.50;99.90;;;;;;10372169;28;20030;-50
2021/03/21 12:45:53;;;;;;;7.25;2.13;;;9.30;99.90;;;;;;10373662;28;20117;-50
2021/03/21 12:51:25;;;;;;;12.23;0.83;;;9.10;99.90;;;;;;10368732;28;20072;-50
2021/03/21 12:56:46;;;;;;;6.78;1.33;;;9.00;99.90;;;;;;10371661;28;22810;-50
2021/03/21 13:02:29;;;;;;;2.45;0.60;;;8.80;99.90;;;;;;10356102;28;20041;-50
2021/03/21 13:07:50;;;;;;;5.80;0.52;;;8.60;99.90;;;;;;10362143;28;20053;-50
2021/03/21 13:13:11;;;;;;;2.55;0.68;;;8.60;99.90;;;;;;10370418;28;20397;-50
2021/03/21 13:18:32;;;;;;;5.38;1.02;;;8.50;99.90;;;;;;10371333;28;20037;-50
2021/03/21 13:23:53;;;;;;;7.80;0.82;;;8.50;99.90;;;;;;10366055;28;20047;-50
2021/03/21 13:29:14;;;;;;;3.47;0.80;;;8.40;99.90;;;;;;10343993;28;20034;-50
2021/03/21 13:34:36;;;;;;;5.55;1.48;;;8.50;99.90;;;;;;10356112;28;20525;-50
2021/03/21 13:39:58;;;;;;;4.30;2.05;;;8.70;99.90;;;;;;10336722;28;20452;-50
2021/03/21 13:45:20;;;;;;;1.52;0.77;;;8.80;99.90;;;;;;10349551;28;20061;-49
2021/03/21 13:50:43;;;;;;;4.65;0.75;;;8.70;99.90;;;;;;10342411;28;20034;-49
2021/03/21 13:56:07;;;;;;;3.33;0.77;;;8.60;99.90;;;;;;10350514;28;20064;-49
2021/03/21 14:01:28;;;;;;;7.45;1.95;;;8.60;99.90;;;;;;10358725;28;20065;-49
2021/03/21 14:06:49;;;;;;;1.08;0.57;;;8.60;99.90;;;;;;10333499;28;20077;-48
2021/03/21 14:12:12;;;;;;;7.13;1.23;;;8.60;99.90;;;;;;10349467;28;20082;-48
2021/03/21 14:17:33;;;;;;;2.38;0.60;;;8.50;99.90;;;;;;10354755;28;20044;-48
2021/03/21 14:22:55;;;;;;;3.35;0.70;;;8.60;99.90;;;;;;10365517;28;20052;-48
2021/03/21 14:28:17;;;;;;;5.30;1.23;;;8.40;99.90;;;;;;10362780;28;20041;-48
2021/03/21 14:33:38;;;;;;;4.80;0.60;;;8.40;99.90;;;;;;10345079;28;20541;-49
2021/03/21 14:38:59;;;;;;;17.83;2.38;;;8.30;99.90;;;;;;10355380;28;20156;-49
2021/03/21 14:44:20;;;;;;;6.28;0.65;;;8.30;99.90;;;;;;10354774;28;20045;-49
2021/03/21 14:49:41;;;;;;;4.38;0.88;;;8.10;99.90;;;;;;10350010;28;20072;-49
2021/03/21 14:55:04;;;;;;;2.75;1.45;;;8.00;99.90;;;;;;10368201;28;20041;-49
2021/03/21 15:00:28;;;;;;;4.13;1.02;;;8.00;99.90;;;;;;10347835;28;20034;-49
2021/03/21 15:05:49;;;;;;;2.20;0.98;;;7.90;99.90;;;;;;10344360;28;20801;-51
2021/03/21 15:11:12;;;;;;;3.95;0.50;;;7.90;99.90;;;;;;10349785;28;20812;-49
2021/03/21 15:16:33;;;;;;;6.53;0.90;;;8.00;99.90;;;;;;10358295;28;20064;-49
2021/03/21 15:21:54;;;;;;;1.38;0.52;;;7.90;99.90;;;;;;10344436;28;20045;-49
2021/03/21 15:27:15;;;;;;;1.73;0.50;;;8.00;99.90;;;;;;10346899;28;20402;-49
2021/03/21 15:32:36;;;;;;;2.40;0.52;;;8.00;99.90;;;;;;10348311;28;20130;-49
2021/03/21 15:37:58;;;;;;;2.70;0.85;;;8.00;99.90;;;;;;10353672;28;20046;-49
2021/03/21 15:43:20;;;;;;;11.48;0.98;;;8.20;99.90;;;;;;10341985;28;20147;-49
2021/03/21 15:48:41;;;;;;;4.75;0.70;;;8.30;99.90;;;;;;10354331;28;20037;-49
2021/03/21 15:54:02;;;;;;;3.63;1.00;;;8.20;99.90;;;;;;10363340;28;20372;-49
2021/03/21 15:59:24;;;;;;;9.43;0.98;;;8.20;99.90;;;;;;10379525;28;20041;-50
2021/03/21 16:04:46;;;;;;;5.47;0.88;;;8.10;99.90;;;;;;10375059;28;20401;-49
2021/03/21 16:10:08;;;;;;;6.95;1.20;;;8.10;99.90;;;;;;10374050;28;20036;-49
2021/03/21 16:15:29;;;;;;;7.78;0.45;;;8.10;99.90;;;;;;10372742;28;20045;-49
2021/03/21 16:20:52;;;;;;;7.55;0.82;;;8.00;99.90;;;;;;10372895;28;20046;-49
2021/03/21 16:26:12;;;;;;;4.10;0.57;;;8.00;99.90;;;;;;10368946;28;20321;-49
2021/03/21 16:31:33;;;;;;;3.15;0.82;;;7.90;99.90;;;;;;10380013;28;20037;-49
2021/03/21 16:36:57;;;;;;;5.65;0.90;;;7.90;99.90;;;;;;10375634;28;20095;-49
2021/03/21 16:42:18;;;;;;;1.58;0.82;;;7.90;99.90;;;;;;10372384;28;20033;-49
2021/03/21 16:47:39;;;;;;;12.05;0.73;;;7.80;99.90;;;;;;10358645;28;20034;-49
2021/03/21 16:53:00;;;;;;;7.80;2.33;;;7.70;99.90;;;;;;10377939;28;20037;-49
2021/03/21 16:58:22;;;;;;;8.68;1.88;;;7.60;99.90;;;;;;10358518;28;20033;-49
2021/03/21 17:03:43;;;;;;;1.75;0.55;;;7.60;99.90;;;;;;10378006;28;20055;-49
2021/03/21 17:09:05;;;;;;;1.85;0.50;;;7.50;99.90;;;;;;10370972;28;20136;-49
2021/03/21 17:14:26;;;;;;;2.63;1.00;;;7.50;99.90;;;;;;10365567;28;20048;-49
2021/03/21 17:19:47;;;;;;;2.85;1.05;;;7.40;99.90;;;;;;10373927;28;20061;-49
2021/03/21 17:25:09;;;;;;;0.95;0.38;;;7.30;99.90;;;;;;10375271;28;20045;-49
2021/03/21 17:30:35;;;;;;;6.15;1.17;;;7.20;99.90;;;;;;10363181;28;20033;-49
2021/03/21 17:35:57;;;;;;;2.97;1.23;;;7.20;99.90;;;;;;10382445;28;20042;-49
2021/03/21 17:41:18;;;;;;;0.95;0.68;;;7.10;99.90;;;;;;10365068;28;20045;-49
2021/03/21 17:46:39;;;;;;;11.80;1.58;;;7.20;99.90;;;;;;10382206;28;20373;-49
2021/03/21 17:52:01;;;;;;;1.00;0.52;;;7.10;99.90;;;;;;10384823;28;20045;-49
2021/03/21 17:57:21;;;;;;;2.05;0.82;;;7.10;99.90;;;;;;10384390;28;20103;-49
2021/03/21 18:02:42;;;;;;;2.55;1.45;;;7.00;99.90;;;;;;10376392;28;20140;-49
2021/03/21 18:08:04;;;;;;;5.43;0.77;;;6.90;99.90;;;;;;10379556;28;20048;-49
2021/03/21 18:13:27;;;;;;;2.40;0.50;;;6.90;99.90;;;;;;10376878;28;20036;-49
2021/03/21 18:18:48;;;;;;;3.58;0.40;;;6.90;99.90;;;;;;10379748;28;20034;-49
2021/03/21 18:24:09;;;;;;;0.75;0.22;;;6.90;99.90;;;;;;10368433;28;20048;-49
2021/03/21 18:29:31;;;;;;;2.97;0.60;;;6.80;99.90;;;;;;10389791;28;20045;-49
2021/03/21 18:34:52;;;;;;;3.08;0.70;;;6.70;99.90;;;;;;10377801;28;20387;-50
2021/03/21 18:40:13;;;;;;;2.97;0.82;;;6.70;99.90;;;;;;10382586;28;20452;-49
2021/03/21 18:45:36;;;;;;;1.52;0.65;;;6.70;99.90;;;;;;10375886;28;20057;-49
2021/03/21 18:50:58;;;;;;;3.90;0.38;;;6.70;99.90;;;;;;10372702;28;20509;-49
2021/03/21 18:56:20;;;;;;;13.50;1.42;;;6.60;99.90;;;;;;10369482;28;20029;-49
2021/03/21 19:01:43;;;;;;;11.05;2.97;;;6.60;99.90;;;;;;10346060;28;20034;-49
2021/03/21 19:07:04;;;;;;;0.50;0.28;;;6.50;99.90;;;;;;10344333;28;21003;-49
2021/03/21 19:12:25;;;;;;;5.90;0.60;;;6.40;99.90;;;;;;10369516;28;20045;-49
2021/03/21 19:17:50;;;;;;;4.90;0.85;;;6.30;99.90;;;;;;10382383;28;20034;-49
2021/03/21 19:23:14;;;;;;;6.32;1.73;;;6.30;99.90;;;;;;10372522;28;20046;-49
2021/03/21 19:28:35;;;;;;;1.27;0.28;;;6.20;99.90;;;;;;10358973;28;20061;-49
2021/03/21 19:33:56;;;;;;;1.65;0.40;;;6.20;99.90;;;;;;10376897;28;20042;-49
2021/03/21 19:39:17;;;;;;;3.65;0.52;;;6.20;99.90;;;;;;10385293;28;20087;-49
2021/03/21 19:44:38;;;;;;;9.23;1.60;;;6.10;99.90;;;;;;10383754;28;20056;-49
2021/03/21 19:49:59;;;;;;;1.80;0.82;;;6.00;99.90;;;;;;10376037;28;20040;-49
2021/03/21 19:55:25;;;;;;;2.33;1.05;;;5.90;99.90;;;;;;10358359;28;20045;-49
2021/03/21 20:00:46;;;;;;;7.32;0.80;;;5.90;99.90;;;;;;10300752;28;20048;-49
2021/03/21 20:06:07;;;;;;;1.48;0.57;;;5.80;99.90;;;;;;10307819;28;20140;-49
2021/03/21 20:11:28;;;;;;;5.63;0.52;;;5.80;99.90;;;;;;10330558;28;20048;-49
2021/03/21 20:16:49;;;;;;;0.90;0.45;;;5.80;99.90;;;;;;10354381;28;20033;-49
2021/03/21 20:22:10;;;;;;;11.52;1.52;;;5.80;99.90;;;;;;10326841;28;20524;-49
2021/03/21 20:27:31;;;;;;;2.47;1.00;;;5.80;99.90;;;;;;10310167;28;20549;-49
2021/03/21 20:32:53;;;;;;;2.03;0.63;;;5.80;99.90;;;;;;10312576;28;20034;-49
2021/03/21 20:38:15;;;;;;;11.80;1.85;;;5.80;99.90;;;;;;10304933;28;20042;-49
2021/03/21 20:43:37;;;;;;;2.75;0.65;;;5.80;99.90;;;;;;10315568;28;20054;-49
2021/03/21 20:48:58;;;;;;;4.82;1.55;;;5.80;99.90;;;;;;10311362;28;20045;-49
2021/03/21 20:54:19;;;;;;;1.55;0.40;;;5.70;99.90;;;;;;10338983;28;20271;-49
2021/03/21 20:59:40;;;;;;;3.70;1.35;;;5.70;99.90;;;;;;10348904;28;20029;-49
2021/03/21 21:05:01;;;;;;;2.22;1.23;;;5.60;99.90;;;;;;10356258;28;20720;-49
2021/03/21 21:10:29;;;;;;;3.97;0.95;;;5.50;99.90;;;;;;10349957;28;20038;-49
2021/03/21 21:15:52;;;;;;;8.10;0.80;;;5.40;99.90;;;;;;10347950;28;20030;-51
2021/03/21 21:21:13;;;;;;;4.72;1.02;;;5.30;99.90;;;;;;10356403;28;20065;-50
2021/03/21 21:26:34;;;;;;;1.63;0.75;;;5.20;99.90;;;;;;10362076;28;20096;-49
2021/03/21 21:31:55;;;;;;;1.25;0.50;;;5.10;99.90;;;;;;10342452;28;20034;-49
2021/03/21 21:37:16;;;;;;;3.90;0.70;;;5.10;99.90;;;;;;10344537;28;20513;-49
2021/03/21 21:42:37;;;;;;;5.60;0.90;;;5.00;99.90;;;;;;10354964;28;20465;-49
2021/03/21 21:47:58;;;;;;;2.15;0.50;;;4.90;99.90;;;;;;10357968;28;20344;-49
2021/03/21 21:53:20;;;;;;;1.95;0.47;;;4.80;99.90;;;;;;10350908;28;20033;-49
2021/03/21 21:58:41;;;;;;;1.52;0.32;;;4.70;99.90;;;;;;10357383;28;20096;-49
2021/03/21 22:04:02;;;;;;;1.98;0.70;;;4.60;99.90;;;;;;10357034;28;20115;-49
2021/03/21 22:09:23;;;;;;;0.35;0.10;;;4.60;99.90;;;;;;10358741;28;20736;-49
2021/03/21 22:14:44;;;;;;;5.90;1.85;;;4.60;99.90;;;;;;10358555;28;20041;-49
2021/03/21 22:20:05;;;;;;;2.33;0.98;;;4.60;99.90;;;;;;10357596;28;20040;-49
2021/03/21 22:25:29;;;;;;;10.38;2.00;;;4.60;99.90;;;;;;10353066;28;20045;-49
2021/03/21 22:30:51;;;;;;;1.75;0.52;;;4.50;99.90;;;;;;10353043;28;20063;-49
2021/03/21 22:36:13;;;;;;;4.55;0.52;;;4.50;99.90;;;;;;10353326;28;20038;-49
2021/03/21 22:41:36;;;;;;;6.45;0.90;;;4.40;99.90;;;;;;10350333;28;20049;-49
2021/03/21 22:46:57;;;;;;;2.33;0.77;;;4.50;99.90;;;;;;10346580;28;20079;-49
2021/03/21 22:52:18;;;;;;;1.52;0.82;;;4.50;99.90;;;;;;10347644;28;20412;-49
2021/03/21 22:57:40;;;;;;;3.22;1.25;;;4.50;99.90;;;;;;10351674;28;21217;-49
2021/03/21 23:03:01;;;;;;;4.53;1.77;;;4.50;99.90;;;;;;10359507;28;20041;-49
2021/03/21 23:08:22;;;;;;;5.82;1.77;;;4.40;99.90;;;;;;10363118;28;20045;-49
2021/03/21 23:13:42;;;;;;;3.58;0.95;;;4.40;99.90;;;;;;10362293;28;20219;-49
2021/03/21 23:19:03;;;;;;;4.15;1.48;;;4.40;99.90;;;;;;10355073;28;20041;-49
2021/03/21 23:24:24;;;;;;;7.13;2.15;;;4.30;99.90;;;;;;10351798;28;20056;-49
2021/03/21 23:29:45;;;;;;;3.67;1.92;;;4.20;99.90;;;;;;10371679;28;20099;-49
2021/03/21 23:35:07;;;;;;;6.72;0.90;;;4.10;99.90;;;;;;10360653;28;20157;-49
2021/03/21 23:40:32;;;;;;;2.10;0.75;;;4.10;99.90;;;;;;10346751;28;20038;-49
2021/03/21 23:45:53;;;;;;;4.10;1.10;;;4.00;99.90;;;;;;10373868;28;20119;-49
2021/03/21 23:51:14;;;;;;;8.80;1.98;;;4.00;99.90;;;;;;10368444;28;20394;-49
2021/03/21 23:56:35;;;;;;;7.43;1.00;;;4.00;99.90;;;;;;10372353;28;20079;-49
